KFEW/FEW METAR and TAF weather

Enter ICAO airport designator
Station Type Date Time Source
KFEW METAR 2021/01/20 18:56 UTC NOAA

KFEW 201856Z AUTO 28042G54KT 10SM CLR 07/M11 A2990 RMK AO2 PK WND 28054/53 SLP139 T00661112 $


Station Type Date Time Source
KFEW Decoded METAR 2021/01/20 18:56 UTC NOAA

Station name not available
Jan 20, 2021 - 01:56 PM EST / 2021.01.20 1856 UTC
Wind: from the W (280 degrees) at 48 MPH (42 KT) gusting to 62 MPH (54 KT):1
Visibility: 10 mile(s):0
Sky conditions: clear
Temperature: 43.9 F (6.6 C)
Dew Point: 11.8 F (-11.2 C)
Relative Humidity: 26%
Pressure (altimeter): 29.9 in. Hg (1012 hPa)
ob: KFEW 201856Z AUTO 28042G54KT 10SM CLR 07/M11 A2990 RMK AO2 PK WND 28054/53 SLP139 T00661112
cycle: 19

Station Type Date Time Source
KFEW TAF UTC NOAA

Error!

Example: see airport list